Startpagina
METAR-TAF:

METAR-TAF

Vliegvelden :

Chimoio, Mozambique

breedte: 19-07S, lengte: 033-28E, hoogte: 731 m

Actueel weer

Dit bericht is 35 minuten geleden gemaakt, om 00:00 UTC
Temperatuur 14°C
Vochtigheid 100%
Druk 1028 hPa
Zicht 10 km of meer
Geheel bewolkt op 1000 ft

METAR: FQCH 170000Z /////KT 9999 OVC010 14/14 Q1028

Tijdstip: 02:35 (00:35 UTC)

Verwachting

Dit bericht is 2 uur en het 35 minuten geleden gemaakt, om 22:00 UTC
Verwachting geldig van 17 om 00 UTC tot 17 om 24 UTC
Wind 8 kt uit het oosten
Zicht 10 km of meer
Verspreide wolken op 2000 ft
Wijzigt naar
van 17 om 06 UTC tot 17 om 08 UTC
Wind 3 kt uit variabele richting
Wijzigt naar
van 17 om 12 UTC tot 17 om 14 UTC
Wind 8 kt uit het zuiden
Wijzigt naar
van 17 om 18 UTC tot 17 om 20 UTC
Wind 8 kt uit het oosten

TAF: FQCH 162200Z 1700/1724 10008KT 9999 SCT020 TX23/1713Z TN11/1703Z BECMG 1706/1708 VRB03KT BECMG 1712/1714 17008KT BECMG 1718/1720 10008KT

Waarnemingen en weersverwachtingen van meer dan 4000 vliegvelden (METAR en TAF).

De beschikbare stations zijn de gele en rode punten op de kaart.

Ga met uw muis naar het station om de naam te zien.

Klik dan om waarnemingen en weersverwachtingen te zien.

kaart wijzigen: klik op de groene knoppen met een zwart kruis om in te zoomen, op de groene knop met een streepje om uit te zoomen of op de groene pijlen voor aangrenzende kaarten.


METAR-TAF: